Time;durP1;ratioP1;P1;durP2;ratioP2;P2;SDS_P1;SDS_P2;PMS_P1;PMS_P2;Temp;Humidity;BMP_temperature;BMP_pressure;BME280_temperature;BME280_humidity;BME280_pressure;Samples;Min_cycle;Max_cycle;Signal;HPM_P1;HPM_P2
2021/05/16 00:02:35;;;;;;;7.13;4.50;;;10.00;99.90;;;;;;4451008;28;655967;-74
2021/05/16 00:05:23;;;;;;;7.33;4.90;;;10.00;99.90;;;;;;4432813;28;656708;-74
2021/05/16 00:08:10;;;;;;;6.53;4.60;;;10.00;99.90;;;;;;4451070;28;656742;-73
2021/05/16 00:10:57;;;;;;;8.27;4.77;;;10.00;99.90;;;;;;4419101;28;656471;-74
2021/05/16 00:13:44;;;;;;;8.33;4.83;;;9.90;99.90;;;;;;4446915;28;656916;-74
2021/05/16 00:16:31;;;;;;;6.20;4.53;;;9.90;99.90;;;;;;4447916;28;655746;-74
2021/05/16 00:19:19;;;;;;;9.50;5.63;;;9.90;99.90;;;;;;4429830;28;655830;-73
2021/05/16 00:22:06;;;;;;;9.73;6.70;;;9.90;99.90;;;;;;4452962;28;655237;-74
2021/05/16 00:24:53;;;;;;;9.90;7.90;;;9.90;99.90;;;;;;4426748;28;655618;-74
2021/05/16 00:27:40;;;;;;;12.30;6.93;;;10.00;99.90;;;;;;4451346;28;655222;-72
2021/05/16 00:30:28;;;;;;;11.07;7.77;;;10.00;99.90;;;;;;4427749;28;657885;-73
2021/05/16 00:33:15;;;;;;;12.00;7.70;;;10.00;99.90;;;;;;4437584;28;659035;-73
2021/05/16 00:36:04;;;;;;;10.93;7.50;;;10.00;99.90;;;;;;4431304;28;657472;-73
2021/05/16 00:38:51;;;;;;;10.23;7.27;;;10.00;99.90;;;;;;4449171;28;657270;-73
2021/05/16 00:41:38;;;;;;;18.00;8.70;;;10.00;99.90;;;;;;4426942;28;657838;-74
2021/05/16 00:44:25;;;;;;;16.00;8.53;;;10.00;99.90;;;;;;4445943;28;658126;-74
2021/05/16 00:47:12;;;;;;;12.67;8.10;;;10.10;99.90;;;;;;4429115;28;657689;-74
2021/05/16 00:49:59;;;;;;;16.57;8.77;;;10.10;99.90;;;;;;4444685;28;657517;-74
2021/05/16 00:52:47;;;;;;;13.80;8.18;;;10.10;99.90;;;;;;4445985;28;657900;-73
2021/05/16 00:55:35;;;;;;;15.38;7.55;;;10.00;99.90;;;;;;4427184;28;657977;-74
2021/05/16 00:58:21;;;;;;;11.23;7.47;;;10.10;99.90;;;;;;4449742;28;657250;-73
2021/05/16 01:01:10;;;;;;;10.23;7.20;;;10.00;99.90;;;;;;4426712;28;657957;-73
2021/05/16 01:03:57;;;;;;;10.90;6.83;;;10.00;99.90;;;;;;4435625;28;658088;-74
2021/05/16 01:06:44;;;;;;;10.80;6.77;;;10.00;99.90;;;;;;4449952;28;657792;-73
2021/05/16 01:09:32;;;;;;;11.93;7.37;;;10.00;99.90;;;;;;4443364;28;656713;-72
2021/05/16 01:12:19;;;;;;;10.70;7.23;;;10.00;99.90;;;;;;4419880;28;658262;-73
2021/05/16 01:15:08;;;;;;;10.23;6.27;;;9.90;99.90;;;;;;4445944;28;657939;-72
2021/05/16 01:17:55;;;;;;;10.35;6.90;;;9.90;99.90;;;;;;4415129;28;656981;-73
2021/05/16 01:20:44;;;;;;;11.30;6.50;;;9.90;99.90;;;;;;4435153;28;656734;-74
2021/05/16 01:23:35;;;;;;;11.33;6.13;;;9.90;99.90;;;;;;4446996;28;656397;-73
2021/05/16 01:26:22;;;;;;;13.40;6.57;;;9.90;99.90;;;;;;4400929;28;657038;-73
2021/05/16 01:29:09;;;;;;;10.23;6.37;;;10.00;99.90;;;;;;4450951;28;656078;-73
2021/05/16 01:31:56;;;;;;;10.47;6.43;;;10.00;99.90;;;;;;4437816;28;657427;-73
2021/05/16 01:34:43;;;;;;;11.57;6.50;;;10.00;99.90;;;;;;4425411;28;657683;-74
2021/05/16 01:37:31;;;;;;;10.47;6.53;;;10.10;99.90;;;;;;4443239;28;658435;-73
2021/05/16 01:40:19;;;;;;;9.27;6.03;;;10.20;99.90;;;;;;4426948;28;657456;-74
2021/05/16 01:43:08;;;;;;;8.53;6.23;;;10.20;99.90;;;;;;4443150;28;656378;-73
2021/05/16 01:45:57;;;;;;;11.07;6.15;;;10.20;99.90;;;;;;4424235;28;657390;-73
2021/05/16 01:48:44;;;;;;;8.47;6.13;;;10.20;99.90;;;;;;4421519;28;658167;-73
2021/05/16 01:51:31;;;;;;;11.97;7.00;;;10.10;99.90;;;;;;4452970;28;656976;-73
2021/05/16 01:54:18;;;;;;;10.70;6.83;;;10.20;99.90;;;;;;4429398;28;657926;-73
2021/05/16 01:57:07;;;;;;;10.57;6.47;;;10.20;99.90;;;;;;4446668;28;657692;-73
2021/05/16 01:59:54;;;;;;;13.47;7.33;;;10.30;99.90;;;;;;4427666;28;658035;-73
2021/05/16 02:02:41;;;;;;;10.87;7.00;;;10.30;99.90;;;;;;4442802;28;657534;-73
2021/05/16 02:05:29;;;;;;;11.80;6.90;;;10.30;99.90;;;;;;4427455;28;657942;-74
2021/05/16 02:08:16;;;;;;;10.67;6.17;;;10.40;99.90;;;;;;4442764;28;658480;-73
2021/05/16 02:11:04;;;;;;;9.50;6.00;;;10.40;99.90;;;;;;4423398;28;657728;-73
2021/05/16 02:13:52;;;;;;;13.87;5.90;;;10.40;99.90;;;;;;4447762;28;656143;-73
2021/05/16 02:16:40;;;;;;;9.23;5.83;;;10.30;99.90;;;;;;4429659;28;657804;-74
2021/05/16 02:19:27;;;;;;;9.97;5.97;;;10.30;99.90;;;;;;4443748;28;656294;-74
2021/05/16 02:22:15;;;;;;;9.67;6.43;;;10.30;99.90;;;;;;4454717;28;656492;-73
2021/05/16 02:25:03;;;;;;;9.63;6.13;;;10.40;99.90;;;;;;4444163;28;656655;-74
2021/05/16 02:27:50;;;;;;;9.40;6.10;;;10.40;99.90;;;;;;4439219;28;656698;-73
2021/05/16 02:30:38;;;;;;;9.97;5.57;;;10.30;99.90;;;;;;4445158;28;656568;-74
2021/05/16 02:33:25;;;;;;;30.83;8.33;;;10.30;99.90;;;;;;4453106;28;657148;-73
2021/05/16 02:36:12;;;;;;;13.40;5.80;;;10.30;99.90;;;;;;4418920;28;657826;-73
2021/05/16 02:39:00;;;;;;;9.53;5.40;;;10.30;99.90;;;;;;4453243;28;657218;-73
2021/05/16 02:41:47;;;;;;;10.60;6.13;;;10.30;99.90;;;;;;4438474;28;656419;-73
2021/05/16 02:44:34;;;;;;;19.70;6.57;;;10.20;99.90;;;;;;4445627;28;657205;-74
2021/05/16 02:47:22;;;;;;;12.57;5.43;;;10.10;99.90;;;;;;4448487;28;657509;-73
2021/05/16 02:50:11;;;;;;;7.60;5.63;;;10.10;99.90;;;;;;4418000;28;658181;-72
2021/05/16 02:52:58;;;;;;;7.43;5.17;;;10.10;99.90;;;;;;4425917;28;656496;-72
2021/05/16 02:55:45;;;;;;;9.60;6.18;;;10.10;99.90;;;;;;4453986;28;657779;-73
2021/05/16 02:58:33;;;;;;;13.47;6.53;;;10.10;99.90;;;;;;4429651;28;656607;-73
2021/05/16 03:01:20;;;;;;;7.57;5.57;;;10.10;99.90;;;;;;4447853;28;658199;-73
2021/05/16 03:04:08;;;;;;;12.40;6.13;;;10.00;99.90;;;;;;4446245;28;657216;-72
2021/05/16 03:06:56;;;;;;;8.80;5.93;;;10.00;99.90;;;;;;4425697;28;657805;-72
2021/05/16 03:09:43;;;;;;;11.23;6.32;;;10.00;99.90;;;;;;4430203;28;656804;-72
2021/05/16 03:12:30;;;;;;;8.73;5.70;;;10.00;99.90;;;;;;4451315;28;657698;-73
2021/05/16 03:15:17;;;;;;;9.87;5.73;;;10.00;99.90;;;;;;4429530;28;656871;-73
2021/05/16 03:18:05;;;;;;;9.13;5.70;;;10.10;99.90;;;;;;4447992;28;656797;-73
2021/05/16 03:20:53;;;;;;;9.47;5.87;;;10.20;99.90;;;;;;4442939;28;656675;-72
2021/05/16 03:23:40;;;;;;;11.87;7.10;;;10.20;99.90;;;;;;4448773;28;656175;-72
2021/05/16 03:26:29;;;;;;;10.20;6.47;;;10.20;99.90;;;;;;4430009;28;658020;-72
2021/05/16 03:29:16;;;;;;;9.97;5.47;;;10.30;99.90;;;;;;4450780;28;657555;-72
2021/05/16 03:32:04;;;;;;;11.60;6.00;;;10.30;99.90;;;;;;4429362;28;657300;-72
2021/05/16 03:34:51;;;;;;;11.27;6.03;;;10.30;99.90;;;;;;4448070;28;657424;-72
2021/05/16 03:37:39;;;;;;;9.60;6.17;;;10.30;99.90;;;;;;4423107;28;657652;-72
2021/05/16 03:40:26;;;;;;;11.63;6.30;;;10.40;99.90;;;;;;4448712;28;656697;-72
2021/05/16 03:43:13;;;;;;;12.27;7.47;;;10.50;99.90;;;;;;4418379;28;657710;-72
2021/05/16 03:46:01;;;;;;;11.77;7.33;;;10.50;99.90;;;;;;4439767;28;658630;-72
2021/05/16 03:48:48;;;;;;;9.57;7.10;;;10.60;99.90;;;;;;4419408;28;658454;-72
2021/05/16 03:51:35;;;;;;;10.10;6.17;;;10.60;99.90;;;;;;4446708;28;656788;-72
2021/05/16 03:54:23;;;;;;;12.40;5.97;;;10.70;99.90;;;;;;4436404;28;657569;-72
2021/05/16 03:57:10;;;;;;;12.73;6.20;;;10.70;99.90;;;;;;4447337;28;657920;-72
2021/05/16 03:59:57;;;;;;;12.60;6.27;;;10.70;99.90;;;;;;4422483;28;657376;-72
2021/05/16 04:02:44;;;;;;;12.07;7.13;;;10.70;99.90;;;;;;4450597;28;658227;-73
2021/05/16 04:05:32;;;;;;;12.17;6.83;;;10.70;99.90;;;;;;4440142;28;657613;-72
2021/05/16 04:08:22;;;;;;;11.47;5.50;;;10.80;99.90;;;;;;4426930;28;657679;-72
2021/05/16 04:11:10;;;;;;;10.13;5.80;;;10.80;99.90;;;;;;4423787;28;658796;-72
2021/05/16 04:13:57;;;;;;;10.50;5.60;;;10.90;99.90;;;;;;4440732;28;658032;-73
2021/05/16 04:16:44;;;;;;;10.20;5.67;;;11.00;99.90;;;;;;4450160;28;658000;-72
2021/05/16 04:19:31;;;;;;;10.67;5.90;;;11.00;99.90;;;;;;4450341;28;657340;-72
2021/05/16 04:22:21;;;;;;;11.30;5.40;;;11.10;99.90;;;;;;4424719;28;657599;-72
2021/05/16 04:25:10;;;;;;;13.70;5.97;;;11.20;99.90;;;;;;4423304;28;657351;-72
2021/05/16 04:27:58;;;;;;;12.57;5.60;;;11.30;99.90;;;;;;4434405;28;657643;-72
2021/05/16 04:30:45;;;;;;;12.07;6.57;;;11.30;99.90;;;;;;4446291;28;658760;-72
2021/05/16 04:33:33;;;;;;;12.87;7.13;;;11.40;99.90;;;;;;4427534;28;657946;-73
2021/05/16 04:36:20;;;;;;;9.67;6.60;;;11.50;99.90;;;;;;4447852;28;658830;-72
2021/05/16 04:39:07;;;;;;;8.67;5.70;;;11.60;99.90;;;;;;4433335;28;656410;-72
2021/05/16 04:41:54;;;;;;;9.10;4.57;;;11.70;99.90;;;;;;4451860;28;656836;-72
2021/05/16 04:44:42;;;;;;;5.50;3.70;;;11.70;99.90;;;;;;4447039;28;657663;-72
2021/05/16 04:47:29;;;;;;;11.77;3.90;;;11.70;99.90;;;;;;4428267;28;657160;-72
2021/05/16 04:50:18;;;;;;;5.37;3.73;;;11.70;99.90;;;;;;4445099;28;659052;-72
2021/05/16 04:53:05;;;;;;;5.67;3.50;;;11.70;99.90;;;;;;4423188;28;656892;-72
2021/05/16 04:55:52;;;;;;;7.27;3.53;;;11.80;99.90;;;;;;4432388;28;656371;-73
2021/05/16 04:58:39;;;;;;;11.27;3.50;;;11.80;99.90;;;;;;4450666;28;657738;-72
2021/05/16 05:01:27;;;;;;;4.27;3.00;;;11.90;99.90;;;;;;4437719;28;657775;-72
2021/05/16 05:04:14;;;;;;;6.30;3.40;;;12.00;99.90;;;;;;4424617;28;657706;-72
2021/05/16 05:07:01;;;;;;;9.13;3.43;;;12.10;99.90;;;;;;4447336;28;656567;-72
2021/05/16 05:09:48;;;;;;;4.77;3.47;;;12.20;99.90;;;;;;4420331;28;656743;-73
2021/05/16 05:12:35;;;;;;;6.43;3.03;;;12.40;99.90;;;;;;4450323;28;657150;-72
2021/05/16 05:15:23;;;;;;;6.47;3.50;;;12.60;99.90;;;;;;4425935;28;656429;-72
2021/05/16 05:18:11;;;;;;;6.57;3.50;;;12.70;99.90;;;;;;4445056;28;656907;-72
2021/05/16 05:20:58;;;;;;;4.70;3.67;;;12.90;99.90;;;;;;4422520;28;656495;-72
2021/05/16 05:23:45;;;;;;;6.60;3.63;;;13.00;99.90;;;;;;4446148;28;656858;-73
2021/05/16 05:26:32;;;;;;;4.77;3.40;;;13.10;99.90;;;;;;4446015;28;656314;-72
2021/05/16 05:29:18;;;;;;;5.00;3.53;;;13.20;99.90;;;;;;4428668;28;657420;-72
2021/05/16 05:32:06;;;;;;;4.70;2.90;;;13.30;99.90;;;;;;4446070;28;656589;-72
2021/05/16 05:34:54;;;;;;;3.50;2.70;;;13.60;99.90;;;;;;4428813;28;657242;-72
2021/05/16 05:37:41;;;;;;;3.20;2.67;;;13.60;99.90;;;;;;4447371;28;656564;-72
2021/05/16 05:40:28;;;;;;;4.93;3.17;;;13.70;99.90;;;;;;4420024;28;656338;-72
2021/05/16 05:43:16;;;;;;;5.37;3.20;;;13.90;99.90;;;;;;4442359;28;656882;-72
2021/05/16 05:46:03;;;;;;;3.50;2.27;;;14.10;99.90;;;;;;4428166;28;656678;-72
2021/05/16 05:48:50;;;;;;;3.07;2.50;;;14.10;99.90;;;;;;4447572;28;657239;-72
2021/05/16 05:51:41;;;;;;;5.90;2.22;;;14.20;99.90;;;;;;4432476;28;656352;-72
2021/05/16 05:54:28;;;;;;;4.93;2.40;;;14.40;99.90;;;;;;4427455;28;656630;-72
2021/05/16 05:57:15;;;;;;;3.13;2.40;;;14.60;99.90;;;;;;4438083;28;657827;-72
2021/05/16 06:00:03;;;;;;;4.80;2.30;;;14.70;99.90;;;;;;4417214;28;657159;-71
2021/05/16 06:02:51;;;;;;;6.57;2.63;;;14.60;99.90;;;;;;4446843;28;656847;-72
2021/05/16 06:05:38;;;;;;;6.13;2.17;;;14.70;99.90;;;;;;4425702;28;656141;-72
2021/05/16 06:08:26;;;;;;;6.90;2.33;;;14.50;99.90;;;;;;4446581;28;656847;-72
2021/05/16 06:11:13;;;;;;;4.93;2.83;;;14.40;99.90;;;;;;4421159;28;657202;-72
2021/05/16 06:14:00;;;;;;;7.27;3.17;;;14.30;99.90;;;;;;4450269;28;656895;-72
2021/05/16 06:16:47;;;;;;;4.60;3.20;;;14.20;99.90;;;;;;4435545;28;657142;-72
2021/05/16 06:19:36;;;;;;;6.17;3.63;;;14.10;99.90;;;;;;4446549;28;656911;-72
2021/05/16 06:22:23;;;;;;;8.67;4.47;;;13.90;99.90;;;;;;4427158;28;656745;-73
2021/05/16 06:25:12;;;;;;;8.43;4.27;;;13.80;99.90;;;;;;4439701;28;657404;-72
2021/05/16 06:27:59;;;;;;;11.70;4.93;;;13.80;99.90;;;;;;4427201;28;657900;-72
2021/05/16 06:30:46;;;;;;;10.37;5.50;;;13.70;99.90;;;;;;4448985;28;658103;-72
2021/05/16 06:33:33;;;;;;;10.57;5.50;;;13.70;99.90;;;;;;4422211;28;659208;-72
2021/05/16 06:36:20;;;;;;;10.77;5.47;;;13.70;99.90;;;;;;4443845;28;658362;-71
2021/05/16 06:39:08;;;;;;;9.93;5.47;;;13.60;99.90;;;;;;4422219;28;657927;-72
2021/05/16 06:41:56;;;;;;;11.30;6.00;;;13.70;99.90;;;;;;4448694;28;657456;-72
2021/05/16 06:44:43;;;;;;;12.60;6.97;;;13.80;99.90;;;;;;4430269;28;658630;-72
2021/05/16 06:47:30;;;;;;;15.87;6.77;;;13.80;99.90;;;;;;4446895;28;658483;-72
2021/05/16 06:50:19;;;;;;;14.10;7.00;;;13.80;99.90;;;;;;4433213;28;658116;-72
2021/05/16 06:53:06;;;;;;;11.65;6.72;;;13.90;99.90;;;;;;4445384;28;657658;-72
2021/05/16 06:55:53;;;;;;;12.23;6.40;;;14.00;99.90;;;;;;4425007;28;657654;-73
2021/05/16 06:58:41;;;;;;;10.80;6.37;;;14.00;99.90;;;;;;4448690;28;658504;-72
2021/05/16 07:01:28;;;;;;;10.82;6.07;;;14.00;99.90;;;;;;4425521;28;658273;-72
2021/05/16 07:04:15;;;;;;;7.60;5.10;;;14.10;99.90;;;;;;4448344;28;657631;-72
2021/05/16 07:07:03;;;;;;;13.30;5.50;;;14.10;99.90;;;;;;4417645;28;656685;-72
2021/05/16 07:09:50;;;;;;;5.83;4.00;;;14.10;99.90;;;;;;4442118;28;657754;-72
2021/05/16 07:12:37;;;;;;;5.50;4.13;;;14.10;99.90;;;;;;4436481;28;656918;-72
2021/05/16 07:15:26;;;;;;;7.82;4.60;;;14.20;99.90;;;;;;4446279;28;656643;-72
2021/05/16 07:18:13;;;;;;;9.30;5.17;;;14.40;99.90;;;;;;4424906;28;656567;-72
2021/05/16 07:21:00;;;;;;;7.53;4.70;;;14.70;99.90;;;;;;4443351;28;657471;-72
2021/05/16 07:23:47;;;;;;;6.87;4.10;;;14.90;99.90;;;;;;4446302;28;655694;-72
2021/05/16 07:26:34;;;;;;;6.93;4.20;;;15.00;99.90;;;;;;4422890;28;656703;-72
2021/05/16 07:29:21;;;;;;;6.57;3.67;;;15.20;99.90;;;;;;4449124;28;656619;-72
2021/05/16 07:32:10;;;;;;;5.17;3.40;;;15.20;99.90;;;;;;4414033;28;656185;-73
2021/05/16 07:34:57;;;;;;;6.53;3.20;;;15.10;99.90;;;;;;4441398;28;655823;-73
2021/05/16 07:37:44;;;;;;;4.73;3.13;;;15.10;99.90;;;;;;4430697;28;656598;-72
2021/05/16 07:40:31;;;;;;;5.47;3.43;;;15.00;99.90;;;;;;4450196;28;656885;-72
2021/05/16 07:43:18;;;;;;;4.27;3.13;;;14.90;99.90;;;;;;4430851;28;657043;-72
2021/05/16 07:46:05;;;;;;;4.90;3.13;;;15.00;99.90;;;;;;4451907;28;656750;-73
2021/05/16 07:48:53;;;;;;;5.93;3.53;;;14.90;99.90;;;;;;4435671;28;656853;-73
2021/05/16 07:51:41;;;;;;;5.03;2.87;;;14.90;99.90;;;;;;4449558;28;656989;-72
2021/05/16 07:54:28;;;;;;;4.72;3.17;;;14.70;99.90;;;;;;4426706;28;656987;-72
2021/05/16 07:57:15;;;;;;;5.13;3.10;;;14.70;99.90;;;;;;4442033;28;656212;-72
2021/05/16 08:00:03;;;;;;;7.28;3.55;;;14.50;99.90;;;;;;4417388;28;657021;-71
2021/05/16 08:02:50;;;;;;;4.33;3.17;;;14.60;99.90;;;;;;4446232;28;657031;-72
2021/05/16 08:05:38;;;;;;;4.53;2.90;;;14.80;99.90;;;;;;4433630;28;656527;-72
2021/05/16 08:08:26;;;;;;;5.37;2.97;;;15.20;99.90;;;;;;4443802;28;657203;-72
2021/05/16 08:11:13;;;;;;;4.57;2.60;;;15.50;99.90;;;;;;4422569;28;657295;-72
2021/05/16 08:14:00;;;;;;;8.20;2.77;;;15.20;99.90;;;;;;4434080;28;657393;-73
2021/05/16 08:16:47;;;;;;;3.83;2.13;;;15.30;99.90;;;;;;4423599;28;656597;-73
2021/05/16 08:19:34;;;;;;;3.53;2.40;;;15.20;99.90;;;;;;4444229;28;656895;-72
2021/05/16 08:22:22;;;;;;;3.47;2.37;;;15.30;99.90;;;;;;4442162;28;657238;-72
2021/05/16 08:25:11;;;;;;;3.43;2.10;;;15.60;99.90;;;;;;4425899;28;657544;-72
2021/05/16 08:27:58;;;;;;;4.27;2.47;;;15.50;99.90;;;;;;4414144;28;657014;-71
2021/05/16 08:30:46;;;;;;;5.07;2.10;;;15.40;99.90;;;;;;4444506;28;656456;-72
2021/05/16 08:33:33;;;;;;;3.40;2.30;;;15.10;99.90;;;;;;4423130;28;656675;-72
2021/05/16 08:36:20;;;;;;;5.87;1.80;;;15.30;99.90;;;;;;4443636;28;656952;-72
2021/05/16 08:39:08;;;;;;;6.97;2.10;;;15.00;99.90;;;;;;4437991;28;656594;-72
2021/05/16 08:41:56;;;;;;;2.43;1.20;;;14.70;99.90;;;;;;4445674;28;657059;-72
2021/05/16 08:44:43;;;;;;;2.53;1.40;;;14.50;99.90;;;;;;4422529;28;656644;-74
2021/05/16 08:47:30;;;;;;;5.00;1.43;;;14.20;99.90;;;;;;4448190;28;657314;-74
2021/05/16 08:50:18;;;;;;;4.40;1.60;;;14.10;99.90;;;;;;4426794;28;657073;-72
2021/05/16 08:53:05;;;;;;;3.33;1.20;;;14.00;99.90;;;;;;4447347;28;657115;-71
2021/05/16 08:55:55;;;;;;;7.93;1.63;;;13.90;99.90;;;;;;4429893;28;656638;-71
2021/05/16 08:58:43;;;;;;;3.30;1.90;;;13.80;99.90;;;;;;4435087;28;656790;-72
2021/05/16 09:01:36;;;;;;;2.73;2.00;;;13.90;99.90;;;;;;4446348;28;656906;-72
2021/05/16 09:04:25;;;;;;;8.27;2.17;;;13.90;99.90;;;;;;4405475;28;657246;-72
2021/05/16 09:07:12;;;;;;;2.30;2.00;;;14.20;99.90;;;;;;4437972;28;656474;-72
2021/05/16 09:09:59;;;;;;;4.73;2.27;;;14.40;99.90;;;;;;4450776;28;656072;-71
2021/05/16 09:12:48;;;;;;;8.27;2.47;;;14.50;99.90;;;;;;4444126;28;657149;-70
2021/05/16 09:15:35;;;;;;;4.97;2.00;;;14.40;99.90;;;;;;4420957;28;656954;-72
2021/05/16 09:18:32;;;;;;;4.85;2.28;;;14.70;99.90;;;;;;4421995;28;656695;-73
2021/05/16 09:21:26;;;;;;;3.70;2.07;;;14.80;99.90;;;;;;4420582;28;656587;-72
2021/05/16 09:24:14;;;;;;;4.00;1.93;;;14.70;99.90;;;;;;4395205;28;657154;-71
2021/05/16 09:27:01;;;;;;;3.37;1.90;;;14.70;99.90;;;;;;4451088;28;656675;-71
2021/05/16 09:29:49;;;;;;;4.13;1.87;;;14.80;99.90;;;;;;4428871;28;656167;-71
2021/05/16 09:32:36;;;;;;;2.23;1.50;;;15.10;99.90;;;;;;4440340;28;656266;-72
2021/05/16 09:35:34;;;;;;;2.70;1.40;;;15.10;99.90;;;;;;4425953;28;657218;-72
2021/05/16 09:38:21;;;;;;;7.73;1.60;;;15.10;99.90;;;;;;4425205;28;656979;-72
2021/05/16 09:41:14;;;;;;;2.53;1.73;;;15.20;99.90;;;;;;4428983;28;657243;-72
2021/05/16 09:44:01;;;;;;;3.03;1.37;;;15.60;99.90;;;;;;4424395;28;656585;-72
2021/05/16 09:47:07;;;;;;;4.07;1.30;;;15.60;99.90;;;;;;4426230;28;656883;-72
2021/05/16 09:49:55;;;;;;;2.93;1.10;;;15.40;99.90;;;;;;4415137;28;656416;-72
2021/05/16 09:52:42;;;;;;;2.03;1.13;;;15.50;99.90;;;;;;4439377;28;656707;-72
2021/05/16 09:55:31;;;;;;;1.50;0.83;;;15.60;99.90;;;;;;4445022;28;656008;-73
2021/05/16 09:58:18;;;;;;;4.27;1.10;;;15.80;99.90;;;;;;4427149;28;656470;-72
2021/05/16 10:01:05;;;;;;;1.83;1.10;;;16.20;99.90;;;;;;4446350;28;657774;-72
2021/05/16 10:03:53;;;;;;;1.30;0.83;;;16.40;99.90;;;;;;4435440;28;656582;-72
2021/05/16 10:06:40;;;;;;;0.70;0.70;;;16.50;99.90;;;;;;4450754;28;656834;-72
2021/05/16 10:09:27;;;;;;;1.30;0.80;;;16.40;99.90;;;;;;4430419;28;656630;-73
2021/05/16 10:12:15;;;;;;;3.13;1.20;;;16.40;99.90;;;;;;4451616;28;656975;-72
2021/05/16 10:15:04;;;;;;;2.17;1.00;;;16.60;99.90;;;;;;4416992;28;656366;-72
2021/05/16 10:17:52;;;;;;;1.53;0.80;;;17.10;99.90;;;;;;4448113;28;656991;-72
2021/05/16 10:20:42;;;;;;;3.13;0.90;;;17.10;99.90;;;;;;4416373;28;656858;-73
2021/05/16 10:23:33;;;;;;;3.67;0.77;;;16.90;99.90;;;;;;4428671;28;656450;-72
2021/05/16 10:26:24;;;;;;;2.23;0.73;;;16.70;99.90;;;;;;4421088;28;656903;-72
2021/05/16 10:29:11;;;;;;;2.43;1.00;;;16.50;99.90;;;;;;4417080;28;656660;-72
2021/05/16 10:32:01;;;;;;;2.70;0.63;;;16.40;99.90;;;;;;4430187;28;656767;-72
2021/05/16 10:34:53;;;;;;;1.10;0.73;;;16.10;99.90;;;;;;4407541;28;656759;-72
2021/05/16 10:37:43;;;;;;;3.00;0.83;;;15.80;99.90;;;;;;4431678;27;657347;-71
2021/05/16 10:40:32;;;;;;;1.37;0.90;;;15.40;99.90;;;;;;4420438;28;657469;-72
2021/05/16 10:43:26;;;;;;;1.17;1.00;;;15.00;99.90;;;;;;4425707;28;657477;-72
2021/05/16 10:46:44;;;;;;;3.23;0.90;;;14.80;99.90;;;;;;4407042;28;656512;-72
2021/05/16 10:49:33;;;;;;;1.70;1.13;;;14.60;99.90;;;;;;4366585;28;656697;-72
2021/05/16 10:52:28;;;;;;;1.73;1.10;;;14.50;99.90;;;;;;4372317;28;656666;-72
2021/05/16 10:55:26;;;;;;;2.73;1.33;;;14.30;99.90;;;;;;4373153;28;656836;-72
2021/05/16 10:58:41;;;;;;;4.90;1.63;;;14.30;99.90;;;;;;4349575;28;657087;-72
2021/05/16 11:01:36;;;;;;;1.77;1.00;;;14.10;99.90;;;;;;4376371;28;657569;-71
2021/05/16 11:04:44;;;;;;;2.40;1.10;;;13.90;99.90;;;;;;4354339;28;656345;-73
2021/05/16 11:07:32;;;;;;;2.30;1.20;;;13.80;99.90;;;;;;4372587;28;657017;-72
2021/05/16 11:10:26;;;;;;;1.80;0.87;;;13.90;99.90;;;;;;4375592;28;656945;-71
2021/05/16 11:13:13;;;;;;;1.70;0.90;;;14.10;99.90;;;;;;4332146;28;657176;-71
2021/05/16 11:16:04;;;;;;;1.80;1.17;;;14.30;99.90;;;;;;4390008;28;656968;-71
2021/05/16 11:18:51;;;;;;;0.87;0.80;;;14.50;99.90;;;;;;4376723;28;656668;-72
2021/05/16 11:21:38;;;;;;;1.43;0.83;;;14.60;99.90;;;;;;4370753;28;656474;-72
2021/05/16 11:24:38;;;;;;;1.40;0.90;;;14.40;99.90;;;;;;4398123;28;656829;-70
2021/05/16 11:27:28;;;;;;;2.17;1.10;;;14.30;99.90;;;;;;4410584;28;656854;-70
2021/05/16 11:30:17;;;;;;;1.90;0.90;;;14.50;99.90;;;;;;4399236;28;658065;-70
2021/05/16 11:33:04;;;;;;;3.50;1.13;;;14.60;99.90;;;;;;4432499;28;657734;-69
2021/05/16 11:35:51;;;;;;;1.73;1.03;;;14.60;99.90;;;;;;4445111;28;657155;-69
2021/05/16 11:38:39;;;;;;;1.90;1.20;;;14.70;99.90;;;;;;4429379;28;657117;-70
2021/05/16 11:41:30;;;;;;;1.57;1.10;;;14.80;99.90;;;;;;4452102;28;656787;-69
2021/05/16 11:44:24;;;;;;;1.40;1.07;;;14.70;99.90;;;;;;4430069;28;656104;-72
2021/05/16 11:47:11;;;;;;;3.00;1.13;;;14.80;99.90;;;;;;4426312;28;656098;-72
2021/05/16 11:49:58;;;;;;;2.27;1.20;;;14.90;99.90;;;;;;4426633;28;656465;-71
2021/05/16 11:52:46;;;;;;;3.57;1.10;;;14.80;99.90;;;;;;4436941;28;657513;-71
2021/05/16 11:55:33;;;;;;;1.57;1.20;;;14.60;99.90;;;;;;4424873;28;657226;-72
2021/05/16 11:58:21;;;;;;;1.50;1.20;;;14.60;99.90;;;;;;4439500;28;657162;-72
2021/05/16 12:01:11;;;;;;;2.13;1.30;;;14.60;99.90;;;;;;4415896;28;656908;-71
2021/05/16 12:03:59;;;;;;;1.87;1.23;;;14.80;99.90;;;;;;4418941;28;656134;-72
2021/05/16 12:06:47;;;;;;;2.28;1.63;;;15.00;99.90;;;;;;4439703;28;656412;-72
2021/05/16 12:09:38;;;;;;;5.47;1.80;;;15.10;99.90;;;;;;4424741;28;658000;-72
2021/05/16 12:12:27;;;;;;;5.60;1.40;;;14.90;99.90;;;;;;4424394;28;657429;-72
2021/05/16 12:15:14;;;;;;;2.03;1.43;;;14.60;99.90;;;;;;4425196;28;657794;-72
2021/05/16 12:18:02;;;;;;;3.07;2.03;;;14.40;99.90;;;;;;4451546;28;657554;-72
2021/05/16 12:21:00;;;;;;;2.87;1.60;;;14.40;99.90;;;;;;4422910;28;658283;-72
2021/05/16 12:23:52;;;;;;;2.07;1.50;;;14.40;99.90;;;;;;4439790;28;656606;-72
2021/05/16 12:26:39;;;;;;;1.57;1.17;;;14.40;99.90;;;;;;4417542;28;657727;-72
2021/05/16 12:29:26;;;;;;;3.73;1.20;;;14.40;99.90;;;;;;4441781;28;656461;-72
2021/05/16 12:32:19;;;;;;;1.90;1.07;;;14.50;99.90;;;;;;4423741;28;656196;-72
2021/05/16 12:35:08;;;;;;;2.80;1.50;;;14.40;99.90;;;;;;4421355;28;656477;-72
2021/05/16 12:37:55;;;;;;;3.40;1.33;;;14.50;99.90;;;;;;4422924;28;657411;-73
2021/05/16 12:40:43;;;;;;;1.87;1.10;;;14.20;99.90;;;;;;4421045;28;656520;-72
2021/05/16 12:43:30;;;;;;;2.45;1.20;;;14.10;99.90;;;;;;4449531;28;656968;-72
2021/05/16 12:46:32;;;;;;;3.00;1.30;;;14.10;99.90;;;;;;4415756;28;656545;-72
2021/05/16 12:49:21;;;;;;;2.80;1.00;;;14.20;99.90;;;;;;4420103;28;656331;-72
2021/05/16 12:52:09;;;;;;;2.07;1.20;;;14.20;99.90;;;;;;4419790;28;656766;-72
2021/05/16 12:54:56;;;;;;;2.73;1.53;;;14.40;99.90;;;;;;4447674;28;656739;-73
2021/05/16 12:57:54;;;;;;;2.53;1.40;;;14.50;99.90;;;;;;4411817;28;657116;-72
2021/05/16 13:00:42;;;;;;;2.47;1.40;;;14.60;99.90;;;;;;4405351;28;656615;-72
2021/05/16 13:03:30;;;;;;;2.53;1.50;;;14.90;99.90;;;;;;4412442;28;657640;-73
2021/05/16 13:06:17;;;;;;;2.27;1.10;;;15.00;99.90;;;;;;4411558;28;656430;-72
2021/05/16 13:09:06;;;;;;;1.40;1.00;;;15.10;99.90;;;;;;4434580;28;657019;-73
2021/05/16 13:11:55;;;;;;;1.30;1.10;;;15.20;99.90;;;;;;4418552;28;656637;-72
2021/05/16 13:14:42;;;;;;;2.47;1.50;;;15.30;99.90;;;;;;4411899;28;656753;-70
2021/05/16 13:17:30;;;;;;;2.00;1.40;;;15.20;99.90;;;;;;4434991;28;656838;-70
2021/05/16 13:20:20;;;;;;;2.57;1.70;;;15.30;99.90;;;;;;4436306;28;656326;-70
2021/05/16 13:23:18;;;;;;;2.55;1.75;;;15.30;99.90;;;;;;4429312;28;656202;-70
2021/05/16 13:26:06;;;;;;;2.93;1.60;;;15.40;99.90;;;;;;4425259;28;656764;-70
2021/05/16 13:28:53;;;;;;;3.20;1.43;;;15.20;99.90;;;;;;4428621;28;656802;-70
2021/05/16 13:31:40;;;;;;;3.43;1.70;;;15.00;99.90;;;;;;4451081;28;656972;-71
2021/05/16 13:34:28;;;;;;;5.95;2.08;;;15.00;99.90;;;;;;4428478;28;656926;-73
2021/05/16 13:37:15;;;;;;;3.30;1.77;;;15.20;99.90;;;;;;4442610;28;657428;-73
2021/05/16 13:40:02;;;;;;;3.53;2.10;;;15.20;99.90;;;;;;4445854;28;656859;-73
2021/05/16 13:42:51;;;;;;;4.07;1.97;;;15.30;99.90;;;;;;4451288;28;656800;-73
2021/05/16 13:45:38;;;;;;;5.03;1.80;;;15.40;99.90;;;;;;4427510;28;656475;-72
2021/05/16 13:48:25;;;;;;;2.57;1.70;;;15.60;99.90;;;;;;4447251;28;656804;-72
2021/05/16 13:51:12;;;;;;;4.57;2.00;;;15.60;99.90;;;;;;4425586;28;657355;-72
2021/05/16 13:54:00;;;;;;;4.10;2.00;;;15.70;99.90;;;;;;4452149;28;656581;-73
2021/05/16 13:56:47;;;;;;;2.27;1.70;;;15.70;99.90;;;;;;4432124;28;656745;-73
2021/05/16 13:59:36;;;;;;;6.23;2.10;;;15.60;99.90;;;;;;4439123;28;656683;-72
2021/05/16 14:02:24;;;;;;;3.70;2.23;;;15.30;99.90;;;;;;4421219;28;656344;-70
2021/05/16 14:05:12;;;;;;;4.17;2.17;;;15.30;99.90;;;;;;4439642;28;656541;-70
2021/05/16 14:07:59;;;;;;;3.53;1.90;;;15.10;99.90;;;;;;4427540;28;656900;-71
2021/05/16 14:10:46;;;;;;;2.20;1.80;;;15.20;99.90;;;;;;4440908;28;656581;-71
2021/05/16 14:13:33;;;;;;;2.73;1.97;;;15.30;99.90;;;;;;4426360;28;656861;-71
2021/05/16 14:16:21;;;;;;;4.07;1.80;;;15.50;99.90;;;;;;4433178;28;657239;-71
2021/05/16 14:19:08;;;;;;;3.90;2.17;;;15.90;99.90;;;;;;4422869;28;656686;-70
2021/05/16 14:21:55;;;;;;;3.73;2.37;;;16.20;99.90;;;;;;4440899;28;657035;-71
2021/05/16 14:24:42;;;;;;;3.83;2.10;;;16.60;99.90;;;;;;4426662;28;656571;-70